sensor_id;sensor_type;location;lat;lon;timestamp;pressure;altitude;pressure_sealevel;temperature;humidity
41862;BME280;27537;57.134;-2.136;2023-03-22T00:02:21;98104.34;;;8.98;100.00
41862;BME280;27537;57.134;-2.136;2023-03-22T00:04:48;98138.91;;;9.01;100.00
41862;BME280;27537;57.134;-2.136;2023-03-22T00:07:15;98099.84;;;8.51;100.00
41862;BME280;27537;57.134;-2.136;2023-03-22T00:09:42;98145.47;;;9.07;100.00
41862;BME280;27537;57.134;-2.136;2023-03-22T00:12:08;98103.63;;;8.47;100.00
41862;BME280;27537;57.134;-2.136;2023-03-22T00:14:35;98079.28;;;8.60;100.00
41862;BME280;27537;57.134;-2.136;2023-03-22T00:17:02;98073.91;;;8.50;100.00
41862;BME280;27537;57.134;-2.136;2023-03-22T00:19:29;98123.44;;;8.74;100.00
41862;BME280;27537;57.134;-2.136;2023-03-22T00:21:59;98066.41;;;8.69;100.00
41862;BME280;27537;57.134;-2.136;2023-03-22T00:24:26;98075.53;;;8.99;100.00
41862;BME280;27537;57.134;-2.136;2023-03-22T00:26:53;98067.00;;;8.49;100.00
41862;BME280;27537;57.134;-2.136;2023-03-22T00:29:20;98063.19;;;8.66;100.00
41862;BME280;27537;57.134;-2.136;2023-03-22T00:31:48;98045.06;;;8.51;100.00
41862;BME280;27537;57.134;-2.136;2023-03-22T00:34:15;98040.91;;;8.49;100.00
41862;BME280;27537;57.134;-2.136;2023-03-22T00:36:42;98040.91;;;8.49;100.00
41862;BME280;27537;57.134;-2.136;2023-03-22T00:39:09;98065.31;;;8.48;100.00
41862;BME280;27537;57.134;-2.136;2023-03-22T00:41:35;98042.19;;;8.30;100.00
41862;BME280;27537;57.134;-2.136;2023-03-22T00:44:02;97997.88;;;8.30;100.00
41862;BME280;27537;57.134;-2.136;2023-03-22T00:46:29;97959.84;;;8.28;100.00
41862;BME280;27537;57.134;-2.136;2023-03-22T00:48:56;98019.97;;;8.50;100.00
41862;BME280;27537;57.134;-2.136;2023-03-22T00:51:22;98024.78;;;8.31;100.00
41862;BME280;27537;57.134;-2.136;2023-03-22T00:53:49;97987.69;;;8.27;100.00
41862;BME280;27537;57.134;-2.136;2023-03-22T00:56:17;98000.75;;;8.51;100.00
41862;BME280;27537;57.134;-2.136;2023-03-22T00:58:44;97976.06;;;8.44;100.00
41862;BME280;27537;57.134;-2.136;2023-03-22T01:01:11;97916.25;;;8.06;100.00
41862;BME280;27537;57.134;-2.136;2023-03-22T01:03:42;97960.19;;;8.47;100.00
41862;BME280;27537;57.134;-2.136;2023-03-22T01:06:10;97891.25;;;8.03;100.00
41862;BME280;27537;57.134;-2.136;2023-03-22T01:08:36;97932.34;;;8.48;100.00
41862;BME280;27537;57.134;-2.136;2023-03-22T01:11:06;97934.59;;;8.28;100.00
41862;BME280;27537;57.134;-2.136;2023-03-22T01:13:34;97942.72;;;8.61;100.00
41862;BME280;27537;57.134;-2.136;2023-03-22T01:16:04;97881.25;;;8.21;100.00
41862;BME280;27537;57.134;-2.136;2023-03-22T01:18:31;97900.09;;;8.25;100.00
41862;BME280;27537;57.134;-2.136;2023-03-22T01:20:58;97909.50;;;8.39;100.00
41862;BME280;27537;57.134;-2.136;2023-03-22T01:23:25;97878.38;;;8.13;100.00
41862;BME280;27537;57.134;-2.136;2023-03-22T01:25:52;97868.91;;;8.12;100.00
41862;BME280;27537;57.134;-2.136;2023-03-22T01:28:19;97883.63;;;8.24;100.00
41862;BME280;27537;57.134;-2.136;2023-03-22T01:30:46;97889.56;;;8.26;100.00
41862;BME280;27537;57.134;-2.136;2023-03-22T01:33:13;97886.69;;;8.42;100.00
41862;BME280;27537;57.134;-2.136;2023-03-22T01:35:39;97864.00;;;8.31;100.00
41862;BME280;27537;57.134;-2.136;2023-03-22T01:38:06;97841.72;;;8.27;100.00
41862;BME280;27537;57.134;-2.136;2023-03-22T01:40:33;97887.78;;;8.62;100.00
41862;BME280;27537;57.134;-2.136;2023-03-22T01:43:00;97849.75;;;8.48;100.00
41862;BME280;27537;57.134;-2.136;2023-03-22T01:45:40;97814.19;;;8.23;100.00
41862;BME280;27537;57.134;-2.136;2023-03-22T01:51:02;97855.66;;;8.50;100.00
41862;BME280;27537;57.134;-2.136;2023-03-22T01:53:33;97804.25;;;8.28;100.00
41862;BME280;27537;57.134;-2.136;2023-03-22T01:56:02;97833.41;;;8.58;100.00
41862;BME280;27537;57.134;-2.136;2023-03-22T01:58:30;97786.38;;;8.24;100.00
41862;BME280;27537;57.134;-2.136;2023-03-22T02:00:57;97773.88;;;8.51;100.00
41862;BME280;27537;57.134;-2.136;2023-03-22T02:03:34;97819.28;;;8.60;100.00
41862;BME280;27537;57.134;-2.136;2023-03-22T02:06:02;97783.38;;;8.52;100.00
41862;BME280;27537;57.134;-2.136;2023-03-22T02:08:30;97776.94;;;8.45;100.00
41862;BME280;27537;57.134;-2.136;2023-03-22T02:10:59;97778.03;;;8.65;100.00
41862;BME280;27537;57.134;-2.136;2023-03-22T02:22:15;97747.31;;;8.69;100.00
41862;BME280;27537;57.134;-2.136;2023-03-22T02:25:01;97739.38;;;8.82;100.00
41862;BME280;27537;57.134;-2.136;2023-03-22T02:27:56;97719.81;;;8.65;100.00
41862;BME280;27537;57.134;-2.136;2023-03-22T02:41:58;97658.38;;;8.83;100.00
41862;BME280;27537;57.134;-2.136;2023-03-22T02:47:22;97592.19;;;8.18;100.00
41862;BME280;27537;57.134;-2.136;2023-03-22T02:50:02;97614.81;;;8.29;100.00
41862;BME280;27537;57.134;-2.136;2023-03-22T02:52:38;97630.56;;;8.16;100.00
41862;BME280;27537;57.134;-2.136;2023-03-22T02:55:20;97646.56;;;8.68;100.00
41862;BME280;27537;57.134;-2.136;2023-03-22T03:00:30;97594.44;;;8.45;100.00
41862;BME280;27537;57.134;-2.136;2023-03-22T03:03:05;97622.81;;;8.82;100.00
41862;BME280;27537;57.134;-2.136;2023-03-22T03:05:42;97583.00;;;8.69;100.00
41862;BME280;27537;57.134;-2.136;2023-03-22T03:08:11;97588.69;;;8.74;100.00
41862;BME280;27537;57.134;-2.136;2023-03-22T03:10:40;97523.59;;;8.29;100.00
41862;BME280;27537;57.134;-2.136;2023-03-22T03:13:15;97573.25;;;8.82;100.00
41862;BME280;27537;57.134;-2.136;2023-03-22T03:15:45;97512.00;;;8.22;100.00
41862;BME280;27537;57.134;-2.136;2023-03-22T03:21:11;97553.25;;;8.71;100.00
41862;BME280;27537;57.134;-2.136;2023-03-22T03:30:23;97552.91;;;8.65;100.00
41862;BME280;27537;57.134;-2.136;2023-03-22T03:32:27;97521.38;;;8.68;100.00
41862;BME280;27537;57.134;-2.136;2023-03-22T03:37:45;97500.81;;;8.74;100.00
41862;BME280;27537;57.134;-2.136;2023-03-22T03:40:18;97470.03;;;8.68;100.00
41862;BME280;27537;57.134;-2.136;2023-03-22T03:42:49;97490.94;;;8.78;100.00
41862;BME280;27537;57.134;-2.136;2023-03-22T03:45:18;97476.56;;;8.63;100.00
41862;BME280;27537;57.134;-2.136;2023-03-22T03:47:48;97446.16;;;8.52;100.00
41862;BME280;27537;57.134;-2.136;2023-03-22T03:50:24;97435.22;;;8.58;100.00
41862;BME280;27537;57.134;-2.136;2023-03-22T03:52:52;97474.13;;;8.82;100.00
41862;BME280;27537;57.134;-2.136;2023-03-22T03:55:20;97479.81;;;8.76;100.00
41862;BME280;27537;57.134;-2.136;2023-03-22T03:57:48;97476.47;;;8.85;100.00
41862;BME280;27537;57.134;-2.136;2023-03-22T04:00:16;97450.66;;;8.71;100.00
41862;BME280;27537;57.134;-2.136;2023-03-22T04:02:43;97465.50;;;8.70;100.00
41862;BME280;27537;57.134;-2.136;2023-03-22T04:05:11;97428.09;;;8.81;100.00
41862;BME280;27537;57.134;-2.136;2023-03-22T04:07:38;97429.19;;;8.79;100.00
41862;BME280;27537;57.134;-2.136;2023-03-22T04:10:06;97442.13;;;8.80;100.00
41862;BME280;27537;57.134;-2.136;2023-03-22T04:12:34;97398.53;;;8.39;100.00
41862;BME280;27537;57.134;-2.136;2023-03-22T04:15:01;97388.16;;;8.27;100.00
41862;BME280;27537;57.134;-2.136;2023-03-22T04:17:28;97377.22;;;8.33;100.00
41862;BME280;27537;57.134;-2.136;2023-03-22T04:19:55;97420.34;;;8.70;100.00
41862;BME280;27537;57.134;-2.136;2023-03-22T04:22:22;97361.47;;;8.35;100.00
41862;BME280;27537;57.134;-2.136;2023-03-22T04:24:50;97356.03;;;8.27;100.00
41862;BME280;27537;57.134;-2.136;2023-03-22T04:27:19;97322.56;;;8.22;100.00
41862;BME280;27537;57.134;-2.136;2023-03-22T04:29:46;97385.63;;;8.69;100.00
41862;BME280;27537;57.134;-2.136;2023-03-22T04:32:17;97366.28;;;8.72;100.00
41862;BME280;27537;57.134;-2.136;2023-03-22T04:34:44;97331.22;;;8.65;100.00
41862;BME280;27537;57.134;-2.136;2023-03-22T04:37:15;97347.88;;;8.73;100.00
41862;BME280;27537;57.134;-2.136;2023-03-22T04:39:42;97351.75;;;8.79;100.00
41862;BME280;27537;57.134;-2.136;2023-03-22T04:42:09;97284.09;;;8.35;100.00
41862;BME280;27537;57.134;-2.136;2023-03-22T04:44:36;97318.13;;;8.55;100.00
41862;BME280;27537;57.134;-2.136;2023-03-22T04:47:03;97328.19;;;8.60;100.00
41862;BME280;27537;57.134;-2.136;2023-03-22T04:49:29;97313.78;;;8.65;100.00
41862;BME280;27537;57.134;-2.136;2023-03-22T04:51:57;97341.88;;;8.83;100.00
41862;BME280;27537;57.134;-2.136;2023-03-22T04:54:23;97276.94;;;8.49;100.00
41862;BME280;27537;57.134;-2.136;2023-03-22T04:56:51;97290.53;;;8.52;100.00
41862;BME280;27537;57.134;-2.136;2023-03-22T04:59:18;97330.63;;;8.82;100.00
41862;BME280;27537;57.134;-2.136;2023-03-22T05:01:46;97318.88;;;8.67;100.00
41862;BME280;27537;57.134;-2.136;2023-03-22T05:04:15;97332.56;;;8.80;100.00
41862;BME280;27537;57.134;-2.136;2023-03-22T05:06:42;97291.00;;;8.67;100.00
41862;BME280;27537;57.134;-2.136;2023-03-22T05:09:09;97284.44;;;8.42;100.00
41862;BME280;27537;57.134;-2.136;2023-03-22T05:11:36;97292.41;;;8.71;100.00
41862;BME280;27537;57.134;-2.136;2023-03-22T05:14:03;97286.59;;;8.89;100.00
41862;BME280;27537;57.134;-2.136;2023-03-22T05:16:30;97292.28;;;9.13;100.00
41862;BME280;27537;57.134;-2.136;2023-03-22T05:18:57;97262.06;;;9.11;100.00
41862;BME280;27537;57.134;-2.136;2023-03-22T05:21:24;97260.56;;;9.08;100.00
41862;BME280;27537;57.134;-2.136;2023-03-22T05:23:56;97290.56;;;9.34;100.00
41862;BME280;27537;57.134;-2.136;2023-03-22T05:26:24;97280.56;;;9.39;100.00
41862;BME280;27537;57.134;-2.136;2023-03-22T05:28:52;97291.03;;;9.58;100.00
41862;BME280;27537;57.134;-2.136;2023-03-22T05:31:20;97285.50;;;9.52;100.00
41862;BME280;27537;57.134;-2.136;2023-03-22T05:33:48;97245.06;;;9.36;100.00
41862;BME280;27537;57.134;-2.136;2023-03-22T05:36:17;97294.19;;;9.62;100.00
41862;BME280;27537;57.134;-2.136;2023-03-22T05:38:45;97277.81;;;9.50;100.00
41862;BME280;27537;57.134;-2.136;2023-03-22T05:41:13;97278.63;;;9.41;100.00
41862;BME280;27537;57.134;-2.136;2023-03-22T05:43:40;97311.06;;;9.58;100.00
41862;BME280;27537;57.134;-2.136;2023-03-22T05:46:09;97302.03;;;9.72;100.00
41862;BME280;27537;57.134;-2.136;2023-03-22T05:48:37;97290.47;;;9.84;100.00
41862;BME280;27537;57.134;-2.136;2023-03-22T05:51:06;97266.00;;;9.75;100.00
41862;BME280;27537;57.134;-2.136;2023-03-22T05:53:33;97300.41;;;9.90;100.00
41862;BME280;27537;57.134;-2.136;2023-03-22T05:56:00;97252.78;;;9.57;100.00
41862;BME280;27537;57.134;-2.136;2023-03-22T05:58:29;97241.50;;;9.47;100.00
41862;BME280;27537;57.134;-2.136;2023-03-22T06:00:57;97268.88;;;9.43;100.00
41862;BME280;27537;57.134;-2.136;2023-03-22T06:03:26;97268.06;;;9.42;100.00
41862;BME280;27537;57.134;-2.136;2023-03-22T06:05:54;97261.28;;;9.30;100.00
41862;BME280;27537;57.134;-2.136;2023-03-22T06:08:22;97297.47;;;9.54;100.00
41862;BME280;27537;57.134;-2.136;2023-03-22T06:10:52;97299.25;;;9.54;100.00
41862;BME280;27537;57.134;-2.136;2023-03-22T06:13:19;97290.47;;;9.04;100.00
41862;BME280;27537;57.134;-2.136;2023-03-22T06:15:46;97229.94;;;8.70;100.00
41862;BME280;27537;57.134;-2.136;2023-03-22T06:18:13;97253.38;;;8.60;100.00
41862;BME280;27537;57.134;-2.136;2023-03-22T06:20:40;97250.63;;;8.62;100.00
41862;BME280;27537;57.134;-2.136;2023-03-22T06:23:07;97266.50;;;8.49;100.00
41862;BME280;27537;57.134;-2.136;2023-03-22T06:25:34;97209.81;;;8.20;100.00
41862;BME280;27537;57.134;-2.136;2023-03-22T06:28:01;97318.31;;;8.63;100.00
41862;BME280;27537;57.134;-2.136;2023-03-22T06:30:28;97315.78;;;8.52;100.00
41862;BME280;27537;57.134;-2.136;2023-03-22T06:32:55;97297.75;;;8.28;100.00
41862;BME280;27537;57.134;-2.136;2023-03-22T06:35:26;97331.69;;;8.49;100.00
41862;BME280;27537;57.134;-2.136;2023-03-22T06:37:53;97306.34;;;8.18;100.00
41862;BME280;27537;57.134;-2.136;2023-03-22T06:40:20;97301.63;;;8.12;100.00
41862;BME280;27537;57.134;-2.136;2023-03-22T06:42:46;97334.38;;;8.26;100.00
41862;BME280;27537;57.134;-2.136;2023-03-22T06:45:13;97328.97;;;7.97;100.00
41862;BME280;27537;57.134;-2.136;2023-03-22T06:47:42;97383.53;;;8.31;100.00
41862;BME280;27537;57.134;-2.136;2023-03-22T06:50:10;97391.78;;;8.47;100.00
41862;BME280;27537;57.134;-2.136;2023-03-22T06:52:37;97376.53;;;8.31;100.00
41862;BME280;27537;57.134;-2.136;2023-03-22T06:55:04;97346.97;;;8.21;100.00
41862;BME280;27537;57.134;-2.136;2023-03-22T06:57:31;97372.25;;;8.30;100.00
41862;BME280;27537;57.134;-2.136;2023-03-22T06:59:58;97362.44;;;8.34;100.00
41862;BME280;27537;57.134;-2.136;2023-03-22T07:02:24;97345.81;;;8.35;100.00
41862;BME280;27537;57.134;-2.136;2023-03-22T07:04:51;97391.34;;;8.63;100.00
41862;BME280;27537;57.134;-2.136;2023-03-22T07:07:18;97374.66;;;9.06;100.00
41862;BME280;27537;57.134;-2.136;2023-03-22T07:09:45;97417.22;;;8.97;100.00
41862;BME280;27537;57.134;-2.136;2023-03-22T07:12:11;97431.81;;;8.79;100.00
41862;BME280;27537;57.134;-2.136;2023-03-22T07:14:38;97453.16;;;8.93;100.00
41862;BME280;27537;57.134;-2.136;2023-03-22T07:17:05;97412.56;;;8.80;100.00
41862;BME280;27537;57.134;-2.136;2023-03-22T07:19:32;97468.16;;;9.84;100.00
41862;BME280;27537;57.134;-2.136;2023-03-22T07:21:59;97465.28;;;9.87;100.00
41862;BME280;27537;57.134;-2.136;2023-03-22T07:24:26;97432.84;;;9.99;100.00
41862;BME280;27537;57.134;-2.136;2023-03-22T07:26:53;97433.50;;;9.82;100.00
41862;BME280;27537;57.134;-2.136;2023-03-22T07:29:19;97441.97;;;10.24;100.00
41862;BME280;27537;57.134;-2.136;2023-03-22T07:31:46;97481.66;;;10.39;100.00
41862;BME280;27537;57.134;-2.136;2023-03-22T07:34:13;97457.09;;;10.11;100.00
41862;BME280;27537;57.134;-2.136;2023-03-22T07:36:41;97491.59;;;10.65;100.00
41862;BME280;27537;57.134;-2.136;2023-03-22T07:39:08;97475.88;;;10.45;100.00
41862;BME280;27537;57.134;-2.136;2023-03-22T07:41:35;97493.09;;;9.98;100.00
41862;BME280;27537;57.134;-2.136;2023-03-22T07:44:02;97455.09;;;9.84;100.00
41862;BME280;27537;57.134;-2.136;2023-03-22T07:46:43;97514.31;;;10.04;100.00
41862;BME280;27537;57.134;-2.136;2023-03-22T07:49:10;97510.50;;;10.18;100.00
41862;BME280;27537;57.134;-2.136;2023-03-22T07:51:36;97518.16;;;10.10;100.00
41862;BME280;27537;57.134;-2.136;2023-03-22T07:54:03;97509.19;;;10.43;100.00
41862;BME280;27537;57.134;-2.136;2023-03-22T07:56:33;97512.66;;;10.54;100.00
41862;BME280;27537;57.134;-2.136;2023-03-22T07:58:59;97543.78;;;10.96;100.00
41862;BME280;27537;57.134;-2.136;2023-03-22T08:01:26;97534.81;;;10.89;100.00
41862;BME280;27537;57.134;-2.136;2023-03-22T08:03:53;97548.31;;;10.74;100.00
41862;BME280;27537;57.134;-2.136;2023-03-22T08:06:20;97504.50;;;10.47;100.00
41862;BME280;27537;57.134;-2.136;2023-03-22T08:08:47;97564.72;;;11.25;100.00
41862;BME280;27537;57.134;-2.136;2023-03-22T08:11:14;97512.63;;;11.02;100.00
41862;BME280;27537;57.134;-2.136;2023-03-22T08:13:40;97502.44;;;10.99;100.00
41862;BME280;27537;57.134;-2.136;2023-03-22T08:16:07;97518.69;;;10.83;100.00
41862;BME280;27537;57.134;-2.136;2023-03-22T08:18:34;97510.19;;;10.91;100.00
41862;BME280;27537;57.134;-2.136;2023-03-22T08:21:01;97545.00;;;11.40;100.00
41862;BME280;27537;57.134;-2.136;2023-03-22T08:23:28;97525.72;;;10.63;100.00
41862;BME280;27537;57.134;-2.136;2023-03-22T08:26:08;97585.66;;;11.15;100.00
41862;BME280;27537;57.134;-2.136;2023-03-22T08:28:35;97592.69;;;10.95;100.00
41862;BME280;27537;57.134;-2.136;2023-03-22T08:31:10;97573.66;;;10.83;100.00
41862;BME280;27537;57.134;-2.136;2023-03-22T08:33:41;97574.34;;;10.66;100.00
41862;BME280;27537;57.134;-2.136;2023-03-22T08:36:10;97605.50;;;11.08;100.00
41862;BME280;27537;57.134;-2.136;2023-03-22T08:38:37;97555.03;;;10.38;100.00
41862;BME280;27537;57.134;-2.136;2023-03-22T08:41:04;97569.53;;;10.71;100.00
41862;BME280;27537;57.134;-2.136;2023-03-22T08:43:31;97565.56;;;10.77;100.00
41862;BME280;27537;57.134;-2.136;2023-03-22T08:45:58;97553.28;;;10.77;100.00
41862;BME280;27537;57.134;-2.136;2023-03-22T08:48:25;97552.47;;;10.77;100.00
41862;BME280;27537;57.134;-2.136;2023-03-22T08:50:54;97598.91;;;11.04;100.00
41862;BME280;27537;57.134;-2.136;2023-03-22T08:53:22;97539.06;;;10.51;100.00
41862;BME280;27537;57.134;-2.136;2023-03-22T08:55:48;97540.75;;;10.81;100.00
41862;BME280;27537;57.134;-2.136;2023-03-22T08:58:16;97573.69;;;11.23;100.00
41862;BME280;27537;57.134;-2.136;2023-03-22T09:00:46;97551.78;;;10.75;100.00
41862;BME280;27537;57.134;-2.136;2023-03-22T09:03:15;97590.50;;;10.91;100.00
41862;BME280;27537;57.134;-2.136;2023-03-22T09:05:42;97577.22;;;10.63;100.00
41862;BME280;27537;57.134;-2.136;2023-03-22T09:08:09;97562.38;;;10.73;100.00
41862;BME280;27537;57.134;-2.136;2023-03-22T09:10:48;97528.78;;;10.98;100.00
41862;BME280;27537;57.134;-2.136;2023-03-22T09:13:18;97574.91;;;10.99;100.00
41862;BME280;27537;57.134;-2.136;2023-03-22T09:15:46;97532.44;;;10.37;100.00
41862;BME280;27537;57.134;-2.136;2023-03-22T09:18:13;97537.06;;;10.23;100.00
41862;BME280;27537;57.134;-2.136;2023-03-22T09:20:41;97545.50;;;10.37;100.00
41862;BME280;27537;57.134;-2.136;2023-03-22T09:23:09;97518.03;;;10.12;100.00
41862;BME280;27537;57.134;-2.136;2023-03-22T09:25:36;97517.06;;;10.03;100.00
41862;BME280;27537;57.134;-2.136;2023-03-22T09:28:03;97566.63;;;10.64;100.00
41862;BME280;27537;57.134;-2.136;2023-03-22T09:30:30;97587.78;;;10.42;100.00
41862;BME280;27537;57.134;-2.136;2023-03-22T09:32:57;97567.66;;;10.33;100.00
41862;BME280;27537;57.134;-2.136;2023-03-22T09:35:24;97557.13;;;10.23;100.00
41862;BME280;27537;57.134;-2.136;2023-03-22T09:37:53;97534.09;;;9.97;100.00
41862;BME280;27537;57.134;-2.136;2023-03-22T09:40:26;97540.97;;;9.98;100.00
41862;BME280;27537;57.134;-2.136;2023-03-22T09:42:56;97576.06;;;10.36;100.00
41862;BME280;27537;57.134;-2.136;2023-03-22T09:45:33;97530.91;;;9.94;100.00
41862;BME280;27537;57.134;-2.136;2023-03-22T09:48:18;97591.38;;;10.10;100.00
41862;BME280;27537;57.134;-2.136;2023-03-22T09:50:49;97599.19;;;10.31;100.00
41862;BME280;27537;57.134;-2.136;2023-03-22T09:53:17;97594.88;;;10.71;100.00
41862;BME280;27537;57.134;-2.136;2023-03-22T09:55:49;97570.19;;;10.63;100.00
41862;BME280;27537;57.134;-2.136;2023-03-22T09:58:29;97556.44;;;10.52;100.00
41862;BME280;27537;57.134;-2.136;2023-03-22T10:01:05;97600.00;;;11.11;100.00
41862;BME280;27537;57.134;-2.136;2023-03-22T10:04:20;97613.50;;;10.97;100.00
41862;BME280;27537;57.134;-2.136;2023-03-22T10:06:27;97598.19;;;10.82;100.00
41862;BME280;27537;57.134;-2.136;2023-03-22T10:12:17;97533.03;;;10.50;100.00
41862;BME280;27537;57.134;-2.136;2023-03-22T10:14:50;97603.31;;;11.23;100.00
41862;BME280;27537;57.134;-2.136;2023-03-22T10:17:24;97564.31;;;11.10;100.00
41862;BME280;27537;57.134;-2.136;2023-03-22T10:19:56;97527.94;;;11.07;100.00
41862;BME280;27537;57.134;-2.136;2023-03-22T10:22:29;97591.72;;;11.26;100.00
41862;BME280;27537;57.134;-2.136;2023-03-22T10:24:59;97596.78;;;11.66;100.00
41862;BME280;27537;57.134;-2.136;2023-03-22T10:27:28;97608.78;;;11.59;100.00
41862;BME280;27537;57.134;-2.136;2023-03-22T10:32:42;97560.97;;;11.37;100.00
41862;BME280;27537;57.134;-2.136;2023-03-22T10:35:23;97594.59;;;11.62;100.00
41862;BME280;27537;57.134;-2.136;2023-03-22T10:37:50;97577.91;;;11.43;100.00
41862;BME280;27537;57.134;-2.136;2023-03-22T10:40:30;97601.91;;;11.58;100.00
41862;BME280;27537;57.134;-2.136;2023-03-22T10:45:37;97594.16;;;11.76;100.00
41862;BME280;27537;57.134;-2.136;2023-03-22T10:48:30;97572.16;;;11.30;100.00
41862;BME280;27537;57.134;-2.136;2023-03-22T10:50:56;97557.00;;;11.24;100.00
41862;BME280;27537;57.134;-2.136;2023-03-22T10:55:58;97609.22;;;11.54;100.00
41862;BME280;27537;57.134;-2.136;2023-03-22T10:58:30;97583.03;;;11.25;100.00
41862;BME280;27537;57.134;-2.136;2023-03-22T11:01:03;97574.78;;;11.20;100.00
41862;BME280;27537;57.134;-2.136;2023-03-22T11:03:42;97606.69;;;11.92;100.00
41862;BME280;27537;57.134;-2.136;2023-03-22T11:06:12;97598.44;;;11.67;100.00
41862;BME280;27537;57.134;-2.136;2023-03-22T11:11:36;97598.53;;;11.85;100.00
41862;BME280;27537;57.134;-2.136;2023-03-22T11:14:14;97611.19;;;12.09;100.00
41862;BME280;27537;57.134;-2.136;2023-03-22T11:16:51;97598.75;;;12.11;100.00
41862;BME280;27537;57.134;-2.136;2023-03-22T11:19:27;97567.97;;;11.47;100.00
41862;BME280;27537;57.134;-2.136;2023-03-22T11:21:58;97565.22;;;11.58;100.00
41862;BME280;27537;57.134;-2.136;2023-03-22T11:24:27;97582.81;;;11.75;100.00
41862;BME280;27537;57.134;-2.136;2023-03-22T11:29:44;97607.44;;;12.12;100.00
41862;BME280;27537;57.134;-2.136;2023-03-22T11:32:35;97644.50;;;12.27;100.00
41862;BME280;27537;57.134;-2.136;2023-03-22T11:35:13;97650.59;;;12.55;100.00
41862;BME280;27537;57.134;-2.136;2023-03-22T11:37:43;97663.13;;;12.33;100.00
41862;BME280;27537;57.134;-2.136;2023-03-22T11:40:30;97652.09;;;12.30;100.00
41862;BME280;27537;57.134;-2.136;2023-03-22T11:43:23;97643.03;;;12.52;100.00
41862;BME280;27537;57.134;-2.136;2023-03-22T11:45:53;97665.28;;;12.48;100.00
41862;BME280;27537;57.134;-2.136;2023-03-22T11:48:24;97663.19;;;12.14;100.00
41862;BME280;27537;57.134;-2.136;2023-03-22T11:50:54;97676.31;;;12.51;100.00
41862;BME280;27537;57.134;-2.136;2023-03-22T11:53:26;97632.31;;;12.08;100.00
41862;BME280;27537;57.134;-2.136;2023-03-22T11:55:55;97652.75;;;12.32;100.00
41862;BME280;27537;57.134;-2.136;2023-03-22T11:58:24;97673.41;;;12.82;100.00
41862;BME280;27537;57.134;-2.136;2023-03-22T12:00:58;97658.88;;;12.60;100.00
41862;BME280;27537;57.134;-2.136;2023-03-22T12:03:32;97620.09;;;12.54;100.00
41862;BME280;27537;57.134;-2.136;2023-03-22T12:06:12;97651.88;;;12.79;100.00
41862;BME280;27537;57.134;-2.136;2023-03-22T12:08:46;97673.47;;;12.90;100.00
41862;BME280;27537;57.134;-2.136;2023-03-22T12:11:38;97669.66;;;12.85;100.00
41862;BME280;27537;57.134;-2.136;2023-03-22T12:17:06;97679.47;;;13.28;100.00
41862;BME280;27537;57.134;-2.136;2023-03-22T12:22:33;97689.34;;;13.44;100.00
41862;BME280;27537;57.134;-2.136;2023-03-22T12:25:00;97621.41;;;12.68;100.00
41862;BME280;27537;57.134;-2.136;2023-03-22T12:27:39;97688.78;;;12.77;100.00
41862;BME280;27537;57.134;-2.136;2023-03-22T12:30:19;97639.13;;;12.56;100.00
41862;BME280;27537;57.134;-2.136;2023-03-22T12:32:52;97703.31;;;12.71;100.00
41862;BME280;27537;57.134;-2.136;2023-03-22T12:35:27;97695.22;;;13.10;100.00
41862;BME280;27537;57.134;-2.136;2023-03-22T12:37:57;97718.47;;;13.05;100.00
41862;BME280;27537;57.134;-2.136;2023-03-22T12:40:34;97716.63;;;12.88;100.00
41862;BME280;27537;57.134;-2.136;2023-03-22T12:45:51;97688.28;;;12.64;100.00
41862;BME280;27537;57.134;-2.136;2023-03-22T12:48:24;97724.25;;;12.81;100.00
41862;BME280;27537;57.134;-2.136;2023-03-22T12:50:59;97746.19;;;12.90;100.00
41862;BME280;27537;57.134;-2.136;2023-03-22T12:53:37;97737.63;;;12.88;100.00
41862;BME280;27537;57.134;-2.136;2023-03-22T12:56:16;97737.56;;;12.70;100.00
41862;BME280;27537;57.134;-2.136;2023-03-22T12:58:48;97728.63;;;12.63;100.00
41862;BME280;27537;57.134;-2.136;2023-03-22T13:01:43;97700.69;;;12.71;100.00
41862;BME280;27537;57.134;-2.136;2023-03-22T13:09:44;97693.81;;;12.88;100.00
41862;BME280;27537;57.134;-2.136;2023-03-22T13:35:45;97724.66;;;12.86;100.00
41862;BME280;27537;57.134;-2.136;2023-03-22T13:38:29;97703.06;;;12.93;100.00
41862;BME280;27537;57.134;-2.136;2023-03-22T13:43:46;97730.47;;;13.08;100.00
41862;BME280;27537;57.134;-2.136;2023-03-22T14:01:55;97781.94;;;13.28;100.00
41862;BME280;27537;57.134;-2.136;2023-03-22T14:04:31;97780.66;;;12.77;100.00
41862;BME280;27537;57.134;-2.136;2023-03-22T14:07:37;97785.78;;;12.79;100.00
41862;BME280;27537;57.134;-2.136;2023-03-22T14:12:57;97796.31;;;12.59;100.00
41862;BME280;27537;57.134;-2.136;2023-03-22T14:15:28;97838.59;;;11.78;100.00
41862;BME280;27537;57.134;-2.136;2023-03-22T14:18:07;97834.97;;;11.59;100.00
41862;BME280;27537;57.134;-2.136;2023-03-22T14:20:38;97830.66;;;11.39;100.00
41862;BME280;27537;57.134;-2.136;2023-03-22T14:23:11;97751.91;;;10.80;100.00
41862;BME280;27537;57.134;-2.136;2023-03-22T14:25:39;97790.47;;;11.19;100.00
41862;BME280;27537;57.134;-2.136;2023-03-22T14:28:05;97800.84;;;11.30;100.00
41862;BME280;27537;57.134;-2.136;2023-03-22T14:30:34;97824.34;;;11.51;100.00
41862;BME280;27537;57.134;-2.136;2023-03-22T14:33:06;97823.44;;;11.31;100.00
41862;BME280;27537;57.134;-2.136;2023-03-22T14:35:38;97813.72;;;11.02;100.00
41862;BME280;27537;57.134;-2.136;2023-03-22T14:38:17;97812.31;;;10.98;100.00
41862;BME280;27537;57.134;-2.136;2023-03-22T14:40:44;97814.50;;;10.93;100.00
41862;BME280;27537;57.134;-2.136;2023-03-22T14:43:28;97822.75;;;10.89;100.00
41862;BME280;27537;57.134;-2.136;2023-03-22T14:46:11;97849.84;;;10.57;100.00
41862;BME280;27537;57.134;-2.136;2023-03-22T14:48:37;97860.41;;;10.76;100.00
41862;BME280;27537;57.134;-2.136;2023-03-22T14:51:12;97833.88;;;10.81;100.00
41862;BME280;27537;57.134;-2.136;2023-03-22T14:53:40;97847.16;;;10.89;100.00
41862;BME280;27537;57.134;-2.136;2023-03-22T14:56:14;97813.69;;;10.93;100.00
41862;BME280;27537;57.134;-2.136;2023-03-22T14:58:41;97843.91;;;11.47;100.00